createdAt,value
2023-05-01T00:01:40.490Z,3.53
2023-05-01T00:04:28.675Z,3.57
2023-05-01T00:07:16.390Z,3.87
2023-05-01T00:10:06.787Z,3.30
2023-05-01T00:12:54.052Z,3.90
2023-05-01T00:15:42.875Z,3.77
2023-05-01T00:18:30.361Z,3.93
2023-05-01T00:21:18.401Z,3.57
2023-05-01T00:24:06.018Z,3.23
2023-05-01T00:26:55.392Z,3.70
2023-05-01T00:29:43.158Z,3.70
2023-05-01T00:32:30.824Z,3.33
2023-05-01T00:35:18.586Z,3.50
2023-05-01T00:38:06.001Z,4.17
2023-05-01T00:40:54.033Z,4.17
2023-05-01T00:43:42.721Z,3.73
2023-05-01T00:46:32.660Z,4.70
2023-05-01T00:49:20.876Z,3.53
2023-05-01T00:52:10.363Z,4.00
2023-05-01T00:54:57.961Z,4.23
2023-05-01T00:57:47.206Z,4.13
2023-05-01T01:00:35.734Z,3.97
2023-05-01T01:03:23.800Z,3.73
2023-05-01T01:06:17.763Z,4.33
2023-05-01T01:09:17.506Z,3.90
2023-05-01T01:12:15.839Z,4.17
2023-05-01T01:15:14.851Z,3.97
2023-05-01T01:18:09.453Z,4.03
2023-05-01T01:21:06.765Z,3.97
2023-05-01T01:24:48.215Z,3.73
2023-05-01T01:28:06.890Z,3.70
2023-05-01T01:31:14.757Z,4.30
2023-05-01T01:34:08.201Z,4.00
2023-05-01T01:37:02.723Z,4.17
2023-05-01T01:39:55.733Z,4.57
2023-05-01T01:42:47.997Z,4.30
2023-05-01T01:45:41.481Z,4.07
2023-05-01T01:48:33.056Z,4.27
2023-05-01T01:51:25.301Z,4.10
2023-05-01T01:54:15.184Z,4.57
2023-05-01T01:57:04.978Z,4.40
2023-05-01T01:59:53.477Z,5.30
2023-05-01T02:02:42.894Z,5.13
2023-05-01T02:05:32.967Z,4.10
2023-05-01T02:08:24.332Z,4.40
2023-05-01T02:11:14.267Z,4.17
2023-05-01T02:14:04.611Z,4.47
2023-05-01T02:16:53.259Z,4.10
2023-05-01T02:19:43.912Z,4.23
2023-05-01T02:22:32.210Z,4.40
2023-05-01T02:25:22.622Z,4.27
2023-05-01T02:28:13.668Z,4.37
2023-05-01T02:31:01.969Z,4.80
2023-05-01T02:33:49.591Z,5.00
2023-05-01T02:36:38.520Z,4.80
2023-05-01T02:39:26.331Z,4.83
2023-05-01T02:42:16.477Z,5.00
2023-05-01T02:45:08.177Z,4.97
2023-05-01T02:47:59.783Z,4.80
2023-05-01T02:50:49.807Z,5.33
2023-05-01T02:53:40.105Z,4.80
2023-05-01T02:56:38.393Z,4.10
2023-05-01T02:59:27.454Z,5.13
2023-05-01T03:02:15.858Z,4.80
2023-05-01T03:05:03.527Z,4.53
2023-05-01T03:07:51.288Z,4.97
2023-05-01T03:10:40.473Z,5.20
2023-05-01T03:13:27.845Z,5.07
2023-05-01T03:16:17.535Z,4.60
2023-05-01T03:19:06.450Z,5.00
2023-05-01T03:21:53.615Z,5.30
2023-05-01T03:24:41.733Z,5.50
2023-05-01T03:27:28.881Z,4.87
2023-05-01T03:30:17.441Z,4.93
2023-05-01T03:33:06.350Z,4.40
2023-05-01T03:36:02.522Z,4.43
2023-05-01T03:38:50.192Z,5.47
2023-05-01T03:42:10.166Z,4.87
2023-05-01T03:45:01.786Z,4.83
2023-05-01T03:47:50.228Z,4.83
2023-05-01T03:50:39.152Z,4.27
2023-05-01T03:53:27.190Z,4.57
2023-05-01T03:56:15.036Z,5.03
2023-05-01T03:59:02.784Z,5.17
2023-05-01T04:01:49.987Z,4.63
2023-05-01T04:04:38.772Z,4.60
2023-05-01T04:07:28.681Z,4.93
2023-05-01T04:10:17.049Z,4.93
2023-05-01T04:13:13.407Z,4.80
2023-05-01T04:16:00.649Z,4.70
2023-05-01T04:18:48.962Z,5.97
2023-05-01T04:21:36.290Z,6.00
2023-05-01T04:24:25.354Z,6.80
2023-05-01T04:27:13.014Z,6.47
2023-05-01T04:30:00.728Z,8.70
2023-05-01T04:32:49.410Z,7.40
2023-05-01T04:35:39.618Z,6.80
2023-05-01T04:38:26.983Z,6.50
2023-05-01T04:41:17.617Z,4.73
2023-05-01T04:44:05.999Z,7.93
2023-05-01T04:46:54.074Z,7.73
2023-05-01T04:49:41.678Z,7.63
2023-05-01T04:52:28.894Z,7.43
2023-05-01T04:55:20.078Z,8.13
2023-05-01T04:58:24.689Z,6.53
2023-05-01T05:01:18.324Z,6.77
2023-05-01T05:04:06.646Z,7.00
2023-05-01T05:06:54.207Z,7.07
2023-05-01T05:09:50.081Z,6.07
2023-05-01T05:12:37.284Z,5.53
2023-05-01T05:15:27.481Z,4.83
2023-05-01T05:18:14.670Z,5.00
2023-05-01T05:21:05.094Z,4.60
2023-05-01T05:23:52.554Z,4.80
2023-05-01T05:26:40.658Z,4.33
2023-05-01T05:29:27.767Z,4.67
2023-05-01T05:32:17.303Z,4.60
2023-05-01T05:35:05.560Z,4.53
2023-05-01T05:37:53.606Z,4.23
2023-05-01T05:40:41.422Z,4.40
2023-05-01T05:43:29.528Z,7.13
2023-05-01T05:46:17.430Z,5.83
2023-05-01T05:49:06.859Z,5.63
2023-05-01T05:51:54.005Z,4.20
2023-05-01T05:54:41.979Z,4.30
2023-05-01T05:57:29.191Z,4.90
2023-05-01T06:00:18.573Z,4.60
2023-05-01T06:03:10.100Z,3.83
2023-05-01T06:05:59.966Z,4.80
2023-05-01T06:08:47.252Z,4.77
2023-05-01T06:11:36.477Z,4.73
2023-05-01T06:14:23.654Z,4.67
2023-05-01T06:17:11.205Z,5.20
2023-05-01T06:19:58.607Z,5.80
2023-05-01T06:22:48.204Z,4.63
2023-05-01T06:25:38.443Z,4.43
2023-05-01T06:28:26.587Z,3.83
2023-05-01T06:31:14.266Z,4.67
2023-05-01T06:34:07.932Z,4.87
2023-05-01T06:37:08.798Z,4.07
2023-05-01T06:39:58.287Z,4.80
2023-05-01T06:42:45.573Z,4.37
2023-05-01T06:45:33.249Z,4.00
2023-05-01T06:48:20.632Z,4.83
2023-05-01T06:51:08.892Z,3.60
2023-05-01T06:53:56.564Z,4.80
2023-05-01T06:56:45.083Z,4.60
2023-05-01T06:59:34.116Z,4.73
2023-05-01T07:02:21.961Z,3.73
2023-05-01T07:05:09.826Z,3.87
2023-05-01T07:08:01.237Z,4.20
2023-05-01T07:10:49.840Z,3.53
2023-05-01T07:13:39.285Z,4.00
2023-05-01T07:16:26.656Z,4.18
2023-05-01T07:19:14.792Z,3.70
2023-05-01T07:22:02.000Z,4.32
2023-05-01T07:24:49.579Z,3.58
2023-05-01T07:27:36.768Z,3.10
2023-05-01T07:30:26.509Z,3.88
2023-05-01T07:33:14.313Z,4.00
2023-05-01T07:36:01.482Z,4.10
2023-05-01T07:38:49.597Z,3.33
2023-05-01T07:41:36.785Z,3.45
2023-05-01T07:44:24.448Z,3.88
2023-05-01T07:47:13.432Z,3.90
2023-05-01T07:50:01.551Z,3.70
2023-05-01T07:52:49.242Z,3.50
2023-05-01T07:55:38.288Z,3.85
2023-05-01T07:58:25.960Z,4.35
2023-05-01T08:01:13.172Z,3.47
2023-05-01T08:04:02.707Z,3.90
2023-05-01T08:06:50.926Z,3.78
2023-05-01T08:09:39.001Z,4.32
2023-05-01T08:12:26.867Z,4.03
2023-05-01T08:15:16.055Z,4.10
2023-05-01T08:18:03.406Z,3.72
2023-05-01T08:20:52.832Z,4.43
2023-05-01T08:23:40.138Z,3.22
2023-05-01T08:26:28.297Z,3.70
2023-05-01T08:29:15.572Z,3.75
2023-05-01T08:32:03.743Z,4.10
2023-05-01T08:34:50.879Z,3.60
2023-05-01T08:37:40.270Z,4.15
2023-05-01T08:40:27.643Z,4.10
2023-05-01T08:43:16.224Z,4.35
2023-05-01T08:46:08.461Z,4.65
2023-05-01T08:48:59.924Z,4.68
2023-05-01T08:51:48.992Z,5.03
2023-05-01T08:54:42.371Z,4.95
2023-05-01T08:57:31.403Z,4.27
2023-05-01T09:00:21.958Z,5.20
2023-05-01T09:03:12.808Z,5.53
2023-05-01T09:06:03.112Z,5.47
2023-05-01T09:08:50.194Z,5.90
2023-05-01T09:11:39.468Z,6.30
2023-05-01T09:14:26.950Z,6.03
2023-05-01T09:17:15.940Z,6.93
2023-05-01T09:20:07.094Z,7.57
2023-05-01T09:22:57.398Z,7.10
2023-05-01T09:25:44.789Z,7.33
2023-05-01T09:28:48.463Z,7.17
2023-05-01T09:31:36.010Z,7.70
2023-05-01T09:34:23.651Z,8.10
2023-05-01T09:37:14.361Z,6.97
2023-05-01T09:40:07.023Z,8.00
2023-05-01T09:42:57.979Z,8.07
2023-05-01T09:46:00.228Z,8.37
2023-05-01T09:48:58.642Z,8.73
2023-05-01T09:51:47.457Z,8.80
2023-05-01T09:54:34.623Z,9.17
2023-05-01T09:57:36.326Z,9.07
2023-05-01T10:00:23.608Z,9.53
2023-05-01T10:03:17.744Z,10.50
2023-05-01T10:06:05.803Z,10.93
2023-05-01T10:08:54.285Z,10.07
2023-05-01T10:11:48.870Z,9.77
2023-05-01T10:14:50.591Z,10.43
2023-05-01T10:17:40.208Z,10.87
2023-05-01T10:20:29.333Z,10.87
2023-05-01T10:23:17.435Z,11.03
2023-05-01T10:26:07.135Z,12.40
2023-05-01T10:28:59.136Z,11.53
2023-05-01T10:31:46.382Z,10.67
2023-05-01T10:34:38.185Z,12.10
2023-05-01T10:37:35.044Z,12.03
2023-05-01T10:40:44.760Z,12.30
2023-05-01T10:43:32.140Z,12.07
2023-05-01T10:46:30.234Z,11.63
2023-05-01T10:49:18.653Z,13.03
2023-05-01T10:52:06.442Z,11.97
2023-05-01T10:55:35.994Z,12.30
2023-05-01T10:58:56.728Z,11.50
2023-05-01T11:01:46.245Z,13.03
2023-05-01T11:04:49.248Z,11.80
2023-05-01T11:07:37.745Z,11.73
2023-05-01T11:10:29.502Z,12.17
2023-05-01T11:13:17.170Z,11.43
2023-05-01T11:16:38.049Z,12.47
2023-05-01T11:19:48.572Z,11.70
2023-05-01T11:22:37.406Z,12.63
2023-05-01T11:25:27.228Z,12.47
2023-05-01T11:28:21.089Z,12.50
2023-05-01T11:31:10.695Z,12.03
2023-05-01T11:33:58.625Z,12.00
2023-05-01T11:36:50.776Z,11.70
2023-05-01T11:39:38.430Z,12.67
2023-05-01T11:42:26.211Z,12.93
2023-05-01T11:45:15.195Z,11.30
2023-05-01T11:48:04.935Z,11.53
2023-05-01T11:50:52.385Z,12.07
2023-05-01T11:53:40.456Z,11.73
2023-05-01T11:56:28.227Z,12.40
2023-05-01T11:59:17.025Z,11.53
2023-05-01T12:02:17.279Z,11.93
2023-05-01T12:05:15.745Z,11.27
2023-05-01T12:08:11.434Z,10.90
2023-05-01T12:10:59.666Z,10.73
2023-05-01T12:13:48.238Z,11.00
2023-05-01T12:16:36.191Z,10.67
2023-05-01T12:19:24.981Z,10.97
2023-05-01T12:22:13.142Z,9.20
2023-05-01T12:25:01.076Z,10.18
2023-05-01T12:27:48.895Z,9.27
2023-05-01T12:30:36.987Z,10.70
2023-05-01T12:33:24.597Z,10.38
2023-05-01T12:36:13.381Z,10.20
2023-05-01T12:39:02.397Z,9.75
2023-05-01T12:41:49.818Z,10.20
2023-05-01T12:44:37.076Z,10.02
2023-05-01T12:47:26.159Z,10.50
2023-05-01T12:50:14.268Z,10.90
2023-05-01T12:53:03.734Z,10.00
2023-05-01T12:55:52.577Z,9.95
2023-05-01T12:58:39.875Z,10.77
2023-05-01T13:01:28.412Z,10.50
2023-05-01T13:04:21.403Z,9.40
2023-05-01T13:07:12.418Z,8.90
2023-05-01T13:10:02.118Z,9.48
2023-05-01T13:12:49.597Z,9.27
2023-05-01T13:15:37.921Z,9.18
2023-05-01T13:18:26.360Z,8.85
2023-05-01T13:21:16.098Z,8.73
2023-05-01T13:24:04.340Z,8.48
2023-05-01T13:27:04.893Z,7.90
2023-05-01T13:29:55.755Z,7.75
2023-05-01T13:32:43.718Z,8.48
2023-05-01T13:35:32.108Z,7.90
2023-05-01T13:38:23.325Z,8.23
2023-05-01T13:41:14.688Z,7.70
2023-05-01T13:44:06.654Z,8.55
2023-05-01T13:46:54.765Z,7.65
2023-05-01T13:49:43.219Z,9.00
2023-05-01T13:52:30.504Z,7.28
2023-05-01T13:55:19.253Z,7.10
2023-05-01T13:58:06.467Z,7.35
2023-05-01T14:00:55.864Z,7.75
2023-05-01T14:03:43.434Z,7.50
2023-05-01T14:06:31.504Z,6.65
2023-05-01T14:09:19.192Z,7.00
2023-05-01T14:12:07.004Z,7.20
2023-05-01T14:14:54.288Z,7.15
2023-05-01T14:17:43.365Z,7.18
2023-05-01T14:20:30.980Z,6.32
2023-05-01T14:23:20.992Z,6.43
2023-05-01T14:26:09.171Z,6.28
2023-05-01T14:28:56.541Z,6.38
2023-05-01T14:31:43.719Z,6.45
2023-05-01T14:34:33.343Z,7.57
2023-05-01T14:37:20.684Z,9.70
2023-05-01T14:40:12.391Z,6.05
2023-05-01T14:43:00.819Z,6.47
2023-05-01T14:45:49.772Z,6.10
2023-05-01T14:48:40.211Z,6.32
2023-05-01T14:51:29.380Z,5.20
2023-05-01T14:54:17.717Z,5.90
2023-05-01T14:57:06.314Z,5.20
2023-05-01T14:59:53.481Z,5.28
2023-05-01T15:02:40.781Z,5.63
2023-05-01T15:05:29.472Z,5.60
2023-05-01T15:08:18.045Z,5.75
2023-05-01T15:11:05.305Z,5.00
2023-05-01T15:13:52.617Z,5.47
2023-05-01T15:16:40.876Z,5.55
2023-05-01T15:19:28.624Z,5.63
2023-05-01T15:22:16.021Z,6.25
2023-05-01T15:25:06.038Z,4.93
2023-05-01T15:27:53.197Z,6.60
2023-05-01T15:30:44.873Z,5.82
2023-05-01T15:33:32.133Z,6.60
2023-05-01T15:36:19.727Z,6.43
2023-05-01T15:39:12.118Z,6.65
2023-05-01T15:42:00.986Z,5.88
2023-05-01T15:44:48.773Z,5.82
2023-05-01T15:47:35.940Z,5.38
2023-05-01T15:50:27.655Z,6.00
2023-05-01T15:53:16.879Z,6.25
2023-05-01T15:56:05.071Z,6.10
2023-05-01T15:58:53.658Z,5.75
2023-05-01T16:01:41.787Z,6.07
2023-05-01T16:04:28.943Z,5.63
2023-05-01T16:07:17.004Z,6.10
2023-05-01T16:10:05.102Z,5.55
2023-05-01T16:12:53.668Z,5.35
2023-05-01T16:15:42.613Z,5.57
2023-05-01T16:18:29.847Z,5.03
2023-05-01T16:21:19.741Z,5.57
2023-05-01T16:24:07.392Z,6.87
2023-05-01T16:26:54.968Z,6.40
2023-05-01T16:29:42.209Z,6.73
2023-05-01T16:32:31.652Z,6.73
2023-05-01T16:35:23.406Z,7.47
2023-05-01T16:38:10.631Z,7.53
2023-05-01T16:40:58.698Z,6.07
2023-05-01T16:43:46.274Z,7.20
2023-05-01T16:46:34.670Z,6.73
2023-05-01T16:49:24.180Z,7.47
2023-05-01T16:52:14.115Z,7.30
2023-05-01T16:55:01.854Z,8.30
2023-05-01T16:57:49.040Z,8.37
2023-05-01T17:00:36.852Z,9.03
2023-05-01T17:03:24.717Z,8.97
2023-05-01T17:06:13.961Z,9.03
2023-05-01T17:09:01.687Z,10.13
2023-05-01T17:11:49.363Z,9.63
2023-05-01T17:14:37.253Z,8.83
2023-05-01T17:17:25.048Z,9.00
2023-05-01T17:20:14.363Z,9.37
2023-05-01T17:23:03.295Z,8.97
2023-05-01T17:25:50.994Z,8.83
2023-05-01T17:28:39.784Z,8.83
2023-05-01T17:31:27.437Z,10.20
2023-05-01T17:34:14.551Z,8.57
2023-05-01T17:37:02.246Z,9.50
2023-05-01T17:39:50.745Z,9.70
2023-05-01T17:42:38.425Z,9.80
2023-05-01T17:45:25.763Z,10.03
2023-05-01T17:48:13.250Z,9.33
2023-05-01T17:51:00.444Z,9.07
2023-05-01T17:53:47.710Z,9.03
2023-05-01T17:56:37.011Z,9.10
2023-05-01T17:59:26.295Z,9.50
2023-05-01T18:02:13.560Z,8.37
2023-05-01T18:05:01.308Z,9.00
2023-05-01T18:07:48.981Z,8.93
2023-05-01T18:10:36.081Z,8.57
2023-05-01T18:13:28.144Z,8.30
2023-05-01T18:16:15.836Z,7.97
2023-05-01T18:19:03.522Z,7.30
2023-05-01T18:21:51.209Z,6.97
2023-05-01T18:24:38.978Z,7.67
2023-05-01T18:27:26.069Z,7.37
2023-05-01T18:30:15.201Z,6.50
2023-05-01T18:33:02.541Z,7.03
2023-05-01T18:35:49.902Z,6.87
2023-05-01T18:38:37.022Z,5.90
2023-05-01T18:41:25.624Z,6.40
2023-05-01T18:44:12.821Z,5.20
2023-05-01T18:47:01.427Z,5.30
2023-05-01T18:49:48.666Z,4.57
2023-05-01T18:52:37.170Z,4.80
2023-05-01T18:55:25.148Z,4.80
2023-05-01T18:58:12.756Z,4.73
2023-05-01T19:00:59.963Z,4.50
2023-05-01T19:03:48.612Z,5.13
2023-05-01T19:06:35.876Z,4.80
2023-05-01T19:09:23.587Z,3.80
2023-05-01T19:12:10.769Z,3.83
2023-05-01T19:14:58.009Z,3.93
2023-05-01T19:17:45.511Z,3.57
2023-05-01T19:20:34.534Z,3.90
2023-05-01T19:23:21.811Z,3.47
2023-05-01T19:26:10.323Z,3.60
2023-05-01T19:28:57.544Z,3.87
2023-05-01T19:31:44.832Z,3.90
2023-05-01T19:34:31.937Z,2.90
2023-05-01T19:37:21.517Z,3.03
2023-05-01T19:40:09.523Z,2.97
2023-05-01T19:42:57.631Z,2.77
2023-05-01T19:45:44.879Z,2.97
2023-05-01T19:48:33.040Z,2.80
2023-05-01T19:51:20.155Z,2.67
2023-05-01T19:54:08.683Z,2.60
2023-05-01T19:56:56.134Z,2.90
2023-05-01T19:59:43.488Z,3.13
2023-05-01T20:02:30.725Z,2.50
2023-05-01T20:05:18.655Z,2.47
2023-05-01T20:08:05.997Z,2.70
2023-05-01T20:10:57.205Z,3.27
2023-05-01T20:13:45.580Z,3.17
2023-05-01T20:16:33.058Z,3.20
2023-05-01T20:19:20.222Z,3.70
2023-05-01T20:22:07.429Z,3.00
2023-05-01T20:24:55.465Z,3.73
2023-05-01T20:27:44.036Z,3.13
2023-05-01T20:30:31.287Z,3.10
2023-05-01T20:33:18.480Z,2.90
2023-05-01T20:36:07.643Z,3.10
2023-05-01T20:38:57.857Z,2.97
2023-05-01T20:41:46.055Z,3.10
2023-05-01T20:44:34.695Z,3.03
2023-05-01T20:47:23.037Z,2.70
2023-05-01T20:50:10.788Z,2.80
2023-05-01T20:52:58.498Z,2.47
2023-05-01T20:55:45.663Z,2.50
2023-05-01T20:58:33.729Z,2.40
2023-05-01T21:01:22.360Z,2.17
2023-05-01T21:04:09.896Z,2.07
2023-05-01T21:06:57.697Z,2.20
2023-05-01T21:09:46.245Z,1.90
2023-05-01T21:12:33.533Z,2.53
2023-05-01T21:15:21.762Z,2.53
2023-05-01T21:18:12.838Z,2.40
2023-05-01T21:21:02.189Z,2.77
2023-05-01T21:23:51.098Z,2.57
2023-05-01T21:26:38.644Z,2.33
2023-05-01T21:29:26.730Z,2.60
2023-05-01T21:32:15.641Z,2.37
2023-05-01T21:35:05.224Z,2.13
2023-05-01T21:37:52.453Z,2.60
2023-05-01T21:40:42.201Z,2.60
2023-05-01T21:43:32.277Z,2.40
2023-05-01T21:46:20.204Z,2.47
2023-05-01T21:49:07.472Z,2.53
2023-05-01T21:52:01.882Z,2.60
2023-05-01T21:54:49.689Z,2.70
2023-05-01T21:57:37.699Z,2.73
2023-05-01T22:00:26.106Z,2.73
2023-05-01T22:03:17.945Z,2.40
2023-05-01T22:06:05.353Z,2.70
2023-05-01T22:08:54.884Z,2.50
2023-05-01T22:11:42.107Z,2.30
2023-05-01T22:14:40.153Z,2.53
2023-05-01T22:17:34.639Z,2.43
2023-05-01T22:20:21.938Z,2.60
2023-05-01T22:23:09.178Z,2.70
2023-05-01T22:26:00.576Z,2.70
2023-05-01T22:28:47.790Z,2.63
2023-05-01T22:31:36.194Z,2.70
2023-05-01T22:34:23.286Z,2.60
2023-05-01T22:37:11.580Z,2.57
2023-05-01T22:40:00.241Z,2.83
2023-05-01T22:42:48.934Z,2.53
2023-05-01T22:45:36.998Z,2.73
2023-05-01T22:48:24.614Z,2.70
2023-05-01T22:51:12.240Z,2.97
2023-05-01T22:53:59.926Z,3.37
2023-05-01T22:56:47.956Z,2.80
2023-05-01T22:59:37.967Z,2.90
2023-05-01T23:02:25.691Z,3.17
2023-05-01T23:05:13.205Z,2.97
2023-05-01T23:08:00.948Z,2.60
2023-05-01T23:10:48.531Z,2.60
2023-05-01T23:13:37.677Z,2.80
2023-05-01T23:16:26.506Z,3.17
2023-05-01T23:19:22.054Z,3.10
2023-05-01T23:22:11.384Z,2.87
2023-05-01T23:24:58.565Z,3.07
2023-05-01T23:27:50.230Z,3.07
2023-05-01T23:30:40.192Z,3.40
2023-05-01T23:33:38.213Z,3.20
2023-05-01T23:36:25.548Z,2.93
2023-05-01T23:39:13.985Z,3.20
2023-05-01T23:42:01.223Z,2.93
2023-05-01T23:44:49.366Z,3.10
2023-05-01T23:47:38.459Z,2.77
2023-05-01T23:50:27.959Z,2.60
2023-05-01T23:53:15.128Z,2.87
2023-05-01T23:56:03.206Z,3.50
2023-05-01T23:58:50.353Z,2.60
